Time;durP1;ratioP1;P1;durP2;ratioP2;P2;SDS_P1;SDS_P2;PMS_P1;PMS_P2;Temp;Humidity;BMP_temperature;BMP_pressure;BME280_temperature;BME280_humidity;BME280_pressure;Samples;Min_cycle;Max_cycle;Signal;HPM_P1;HPM_P2
2021/08/01 00:00:23;;;;;;;4.33;1.93;;;16.20;99.90;;;;;;5016681;28;20226;-92
2021/08/01 00:02:49;;;;;;;4.10;2.00;;;16.30;99.90;;;;;;5017017;28;20206;-91
2021/08/01 00:05:14;;;;;;;6.90;2.80;;;16.10;99.90;;;;;;5015825;28;20183;-88
2021/08/01 00:07:40;;;;;;;5.00;2.30;;;16.00;99.90;;;;;;5035585;28;20172;-92
2021/08/01 00:10:08;;;;;;;3.90;2.07;;;16.10;99.90;;;;;;5036146;28;20177;-89
2021/08/01 00:12:35;;;;;;;4.17;2.27;;;16.10;99.90;;;;;;5037040;28;20500;-91
2021/08/01 00:15:01;;;;;;;5.10;3.00;;;16.00;99.90;;;;;;5036221;28;20416;-91
2021/08/01 00:17:27;;;;;;;5.50;2.77;;;16.00;99.90;;;;;;5036897;28;20431;-90
2021/08/01 00:19:53;;;;;;;3.33;1.93;;;16.00;99.90;;;;;;5034084;28;20206;-89
2021/08/01 00:22:19;;;;;;;7.33;3.03;;;16.00;99.90;;;;;;5035580;28;20182;-93
2021/08/01 00:24:45;;;;;;;7.20;2.60;;;16.00;99.90;;;;;;5032647;28;20449;-86
2021/08/01 00:27:11;;;;;;;5.73;2.47;;;16.00;99.90;;;;;;5052403;28;20460;-88
2021/08/01 00:29:36;;;;;;;4.50;3.13;;;16.00;99.90;;;;;;5034347;28;20932;-87
2021/08/01 00:32:04;;;;;;;4.03;2.27;;;16.00;99.90;;;;;;5052474;28;20216;-86
2021/08/01 00:34:29;;;;;;;3.10;2.80;;;16.00;99.90;;;;;;5040819;28;20221;-89
2021/08/01 00:36:55;;;;;;;5.17;2.73;;;16.00;99.90;;;;;;5036867;28;20483;-86
2021/08/01 00:39:21;;;;;;;5.80;3.10;;;16.00;99.90;;;;;;5052418;28;20176;-88
2021/08/01 00:41:47;;;;;;;4.97;2.57;;;16.00;99.90;;;;;;5052780;28;20276;-86
2021/08/01 00:44:12;;;;;;;6.03;2.70;;;16.00;99.90;;;;;;5052553;28;20254;-86
2021/08/01 00:46:41;;;;;;;5.07;2.60;;;16.00;99.90;;;;;;5052149;28;20425;-88
2021/08/01 00:49:07;;;;;;;3.17;2.20;;;16.00;99.90;;;;;;5050169;28;20182;-86
2021/08/01 00:51:33;;;;;;;4.20;2.57;;;16.00;99.90;;;;;;5051991;28;20431;-90
2021/08/01 00:54:03;;;;;;;5.13;2.80;;;16.00;99.90;;;;;;5051544;28;20425;-88
2021/08/01 00:56:32;;;;;;;4.70;3.50;;;16.00;99.90;;;;;;5053736;28;20551;-91
2021/08/01 00:58:58;;;;;;;7.23;2.93;;;15.90;99.90;;;;;;5052994;28;20428;-89
2021/08/01 01:01:51;;;;;;;7.43;2.70;;;16.00;99.90;;;;;;5052495;28;20505;-89
2021/08/01 01:04:31;;;;;;;4.13;2.20;;;16.00;99.90;;;;;;5062455;28;20420;-93
2021/08/01 01:07:18;;;;;;;2.90;2.30;;;15.90;99.90;;;;;;5073530;28;20780;-90
2021/08/01 01:09:46;;;;;;;4.97;2.37;;;15.90;99.90;;;;;;5055144;28;20416;-89
2021/08/01 01:12:15;;;;;;;5.53;2.73;;;15.90;99.90;;;;;;5072753;28;20486;-89
2021/08/01 01:14:45;;;;;;;4.33;2.30;;;15.90;99.90;;;;;;5043989;28;20429;-89
2021/08/01 01:17:15;;;;;;;5.73;3.47;;;15.90;99.90;;;;;;5033889;28;20394;-91
2021/08/01 01:20:24;;;;;;;3.80;2.10;;;15.90;99.90;;;;;;5020431;28;20432;-89
2021/08/01 01:22:56;;;;;;;5.03;2.40;;;15.90;99.90;;;;;;5035915;28;20491;-90
2021/08/01 01:25:42;;;;;;;4.50;2.20;;;16.00;99.90;;;;;;5027409;28;20420;-91
2021/08/01 01:28:31;;;;;;;4.63;2.50;;;16.00;99.90;;;;;;5039464;28;20412;-91
2021/08/01 01:31:20;;;;;;;4.43;2.50;;;16.00;99.90;;;;;;5037131;28;20936;-91
2021/08/01 01:34:02;;;;;;;5.80;2.30;;;16.00;99.90;;;;;;5053948;28;20412;-91
2021/08/01 01:36:30;;;;;;;6.33;2.37;;;16.00;99.90;;;;;;5035624;28;20419;-93
2021/08/01 01:38:57;;;;;;;3.87;2.80;;;16.10;99.90;;;;;;5037201;28;20824;-93
2021/08/01 01:41:24;;;;;;;3.90;2.80;;;16.00;99.90;;;;;;5055061;28;20464;-91
2021/08/01 01:43:51;;;;;;;3.43;2.27;;;16.10;99.90;;;;;;5039927;28;20417;-91
2021/08/01 01:46:18;;;;;;;6.00;2.60;;;16.00;99.90;;;;;;5040682;28;20478;-91
2021/08/01 01:48:45;;;;;;;5.70;3.23;;;16.10;99.90;;;;;;5041380;28;20823;-93
2021/08/01 01:51:12;;;;;;;7.30;3.33;;;16.00;99.90;;;;;;5039307;28;20536;-93
2021/08/01 01:53:39;;;;;;;5.00;2.80;;;16.00;99.90;;;;;;5040498;28;20506;-93
2021/08/01 01:56:07;;;;;;;3.27;2.30;;;16.10;99.90;;;;;;5039027;28;20431;-94
2021/08/01 01:58:34;;;;;;;2.80;2.40;;;16.00;99.90;;;;;;5038548;28;20416;-92
2021/08/01 02:01:00;;;;;;;3.73;2.97;;;16.00;99.90;;;;;;5060069;28;20464;-90
2021/08/01 02:03:27;;;;;;;7.17;2.90;;;16.00;99.90;;;;;;5040293;28;20449;-92
2021/08/01 02:05:52;;;;;;;6.70;3.70;;;16.00;99.90;;;;;;5042587;28;20447;-92
2021/08/01 02:08:18;;;;;;;4.43;3.63;;;16.00;99.90;;;;;;5065380;28;20769;-91
2021/08/01 02:10:56;;;;;;;6.60;2.93;;;16.00;99.90;;;;;;5023473;28;20230;-90
2021/08/01 02:13:48;;;;;;;4.53;2.40;;;16.10;99.90;;;;;;5038771;28;20436;-91
2021/08/01 02:16:14;;;;;;;5.70;4.70;;;16.00;99.90;;;;;;5085496;22;21003;-90
2021/08/01 02:18:49;;;;;;;5.60;4.20;;;16.00;99.90;;;;;;5038465;28;20431;-90
2021/08/01 02:21:20;;;;;;;7.17;3.50;;;16.00;99.90;;;;;;5037810;28;20240;-89
2021/08/01 02:23:47;;;;;;;4.30;2.80;;;16.00;99.90;;;;;;5039300;28;20412;-92
2021/08/01 02:26:16;;;;;;;7.23;4.30;;;16.10;99.90;;;;;;5038838;28;20941;-91
2021/08/01 02:28:42;;;;;;;6.33;3.50;;;16.10;99.90;;;;;;5039153;28;20419;-90
2021/08/01 02:31:10;;;;;;;6.17;3.27;;;16.00;99.90;;;;;;5039184;28;20439;-90
2021/08/01 02:33:36;;;;;;;7.10;3.97;;;16.10;99.90;;;;;;5038890;28;20753;-91
2021/08/01 02:36:06;;;;;;;7.87;4.50;;;16.10;99.90;;;;;;5039865;28;20428;-91
2021/08/01 02:38:33;;;;;;;6.07;4.00;;;16.10;99.90;;;;;;5039449;28;20502;-90
2021/08/01 02:41:03;;;;;;;7.30;3.77;;;16.00;99.90;;;;;;5039475;28;20475;-90
2021/08/01 02:43:30;;;;;;;5.43;3.40;;;16.00;99.90;;;;;;5040385;28;20413;-92
2021/08/01 02:45:57;;;;;;;4.67;3.80;;;16.00;99.90;;;;;;5040347;28;20519;-90
2021/08/01 02:48:25;;;;;;;6.17;3.40;;;16.00;99.90;;;;;;5039552;28;20430;-91
2021/08/01 02:51:02;;;;;;;7.13;4.00;;;16.00;99.90;;;;;;5039672;28;20412;-91
2021/08/01 02:53:29;;;;;;;7.70;4.07;;;16.00;99.90;;;;;;5039495;28;20582;-93
2021/08/01 02:55:57;;;;;;;7.43;4.20;;;16.00;99.90;;;;;;5039739;28;20517;-94
2021/08/01 02:58:26;;;;;;;4.00;3.57;;;16.00;99.90;;;;;;5058543;28;20407;-92
2021/08/01 03:00:53;;;;;;;6.87;4.40;;;16.10;99.90;;;;;;5040416;28;20467;-92
2021/08/01 03:03:20;;;;;;;5.30;3.10;;;16.00;99.90;;;;;;5057902;28;20409;-92
2021/08/01 03:05:47;;;;;;;7.47;3.90;;;16.00;99.90;;;;;;5039571;28;20436;-93
2021/08/01 03:08:13;;;;;;;5.20;3.87;;;15.90;99.90;;;;;;5022542;28;20426;-91
2021/08/01 03:10:46;;;;;;;6.23;3.53;;;15.90;99.90;;;;;;5038904;28;20426;-92
2021/08/01 03:13:12;;;;;;;7.23;5.13;;;15.90;99.90;;;;;;5039275;28;20424;-91
2021/08/01 03:15:39;;;;;;;6.43;4.33;;;15.90;99.90;;;;;;5038080;28;20482;-91
2021/08/01 03:18:05;;;;;;;6.77;5.30;;;15.80;99.90;;;;;;5038509;28;20573;-92
2021/08/01 03:20:31;;;;;;;8.67;5.27;;;15.90;99.90;;;;;;5038082;28;20467;-91
2021/08/01 03:22:56;;;;;;;6.97;5.60;;;15.90;99.90;;;;;;5038012;28;20424;-90
2021/08/01 03:25:22;;;;;;;8.83;5.57;;;15.90;99.90;;;;;;5038270;28;20917;-91
2021/08/01 03:27:47;;;;;;;4.70;4.20;;;15.90;99.90;;;;;;5038141;28;20219;-91
2021/08/01 03:30:13;;;;;;;7.23;5.27;;;15.90;99.90;;;;;;5038377;28;20184;-91
2021/08/01 03:32:38;;;;;;;11.43;6.30;;;15.90;99.90;;;;;;5037814;28;20170;-92
2021/08/01 03:35:04;;;;;;;10.17;5.37;;;15.90;99.90;;;;;;5037409;28;20689;-92
2021/08/01 03:37:30;;;;;;;9.60;6.33;;;15.90;99.90;;;;;;5041904;28;20229;-92
2021/08/01 03:39:56;;;;;;;9.27;5.23;;;15.90;99.90;;;;;;5044871;28;20467;-93
2021/08/01 03:42:22;;;;;;;8.83;4.70;;;15.90;99.90;;;;;;5037964;28;20213;-93
2021/08/01 03:44:47;;;;;;;7.37;6.30;;;15.90;99.90;;;;;;5037692;28;20282;-91
2021/08/01 03:47:14;;;;;;;8.37;5.90;;;15.90;99.90;;;;;;5038461;28;20424;-90
2021/08/01 03:49:43;;;;;;;7.90;5.60;;;15.90;99.90;;;;;;5037393;28;20529;-93
2021/08/01 03:52:09;;;;;;;7.20;5.77;;;15.90;99.90;;;;;;5038286;28;20472;-91
2021/08/01 03:54:34;;;;;;;12.37;5.63;;;15.90;99.90;;;;;;5055198;28;20538;-89
2021/08/01 03:57:00;;;;;;;7.60;4.93;;;15.90;99.90;;;;;;5054805;28;20190;-91
2021/08/01 03:59:26;;;;;;;7.53;4.03;;;15.90;99.90;;;;;;5037505;28;20170;-91
2021/08/01 04:01:51;;;;;;;6.57;4.23;;;15.80;99.90;;;;;;5055461;28;20226;-91
2021/08/01 04:04:17;;;;;;;7.00;4.97;;;15.80;99.90;;;;;;5036756;28;20627;-91
2021/08/01 04:06:42;;;;;;;6.83;3.97;;;15.80;99.90;;;;;;5036331;28;20181;-91
2021/08/01 04:09:08;;;;;;;5.80;4.37;;;15.80;99.90;;;;;;5035972;28;20227;-88
2021/08/01 04:11:34;;;;;;;5.60;3.70;;;15.70;99.90;;;;;;5036383;28;20185;-86
2021/08/01 04:14:00;;;;;;;5.13;4.00;;;15.70;99.90;;;;;;5054344;28;20620;-90
2021/08/01 04:16:26;;;;;;;5.17;4.67;;;15.70;99.90;;;;;;5036637;28;20221;-92
2021/08/01 04:18:52;;;;;;;5.17;3.60;;;15.80;99.90;;;;;;5036584;28;20538;-89
2021/08/01 04:21:17;;;;;;;6.47;3.67;;;15.70;99.90;;;;;;5020202;28;20224;-93
2021/08/01 04:23:43;;;;;;;5.13;3.50;;;15.70;99.90;;;;;;5035891;28;20416;-94
2021/08/01 04:26:09;;;;;;;7.03;3.20;;;15.70;99.90;;;;;;5037337;28;20181;-93
2021/08/01 04:28:36;;;;;;;6.03;3.87;;;15.80;99.90;;;;;;5037768;28;20228;-92
2021/08/01 04:31:02;;;;;;;6.17;3.00;;;15.80;99.90;;;;;;5055629;28;20490;-94
2021/08/01 04:33:29;;;;;;;6.80;3.60;;;15.90;99.90;;;;;;5038256;28;20826;-94
2021/08/01 04:35:54;;;;;;;5.80;4.07;;;15.90;99.90;;;;;;5037932;28;20428;-92
2021/08/01 04:38:20;;;;;;;9.77;3.40;;;15.90;99.90;;;;;;5055606;28;20415;-93
2021/08/01 04:40:46;;;;;;;6.40;3.77;;;16.00;99.90;;;;;;5054263;28;20631;-94
2021/08/01 04:43:12;;;;;;;7.43;4.60;;;15.90;99.90;;;;;;5038427;28;20189;-88
2021/08/01 04:45:37;;;;;;;6.87;5.53;;;16.00;99.90;;;;;;5036848;28;20893;-90
2021/08/01 04:48:04;;;;;;;10.30;4.40;;;16.00;99.90;;;;;;5055905;28;20178;-91
2021/08/01 04:50:30;;;;;;;6.00;4.07;;;16.00;99.90;;;;;;5036371;28;20645;-93
2021/08/01 04:52:55;;;;;;;7.20;4.13;;;16.00;99.90;;;;;;5038034;28;20415;-93
2021/08/01 04:55:21;;;;;;;8.27;5.00;;;16.00;99.90;;;;;;5036328;28;20178;-89
2021/08/01 04:57:47;;;;;;;7.33;4.27;;;16.00;99.90;;;;;;5053712;28;20179;-91
2021/08/01 05:00:13;;;;;;;7.83;4.40;;;16.00;99.90;;;;;;5035863;28;20205;-90
2021/08/01 05:02:39;;;;;;;7.10;5.10;;;16.10;99.90;;;;;;5035663;28;20178;-89
2021/08/01 05:05:05;;;;;;;6.70;4.73;;;16.00;99.90;;;;;;5035319;28;20477;-89
2021/08/01 05:07:32;;;;;;;7.67;4.90;;;16.00;99.90;;;;;;5035910;28;20186;-90
2021/08/01 05:09:59;;;;;;;6.80;4.73;;;16.00;99.90;;;;;;5044879;28;20508;-93
2021/08/01 05:12:25;;;;;;;8.80;5.97;;;16.00;99.90;;;;;;5036786;28;20438;-91
2021/08/01 05:14:50;;;;;;;6.77;5.33;;;16.10;99.90;;;;;;5035981;28;20456;-92
2021/08/01 05:17:16;;;;;;;11.03;5.47;;;16.10;99.90;;;;;;5039731;28;20245;-91
2021/08/01 05:19:42;;;;;;;6.70;6.00;;;16.20;99.90;;;;;;5040032;28;20175;-91
2021/08/01 05:22:08;;;;;;;9.77;5.27;;;16.20;99.90;;;;;;5040317;28;20191;-91
2021/08/01 05:24:42;;;;;;;10.43;5.23;;;16.30;99.90;;;;;;5039857;28;20524;-91
2021/08/01 05:27:08;;;;;;;8.83;4.30;;;16.30;99.90;;;;;;5040390;28;20516;-92
2021/08/01 05:29:35;;;;;;;10.33;5.80;;;16.40;99.90;;;;;;5057871;28;20437;-89
2021/08/01 05:32:01;;;;;;;8.13;5.40;;;16.50;99.90;;;;;;5040262;28;20726;-90
2021/08/01 05:34:26;;;;;;;11.10;6.80;;;16.40;99.90;;;;;;5039738;28;20416;-89
2021/08/01 05:36:52;;;;;;;9.27;6.00;;;16.50;99.90;;;;;;5040094;28;20171;-90
2021/08/01 05:39:17;;;;;;;14.90;5.97;;;16.50;99.90;;;;;;5039675;28;20232;-89
2021/08/01 05:41:43;;;;;;;9.40;5.73;;;16.70;99.90;;;;;;5039676;28;20211;-92
2021/08/01 05:44:09;;;;;;;8.60;6.00;;;16.80;99.90;;;;;;5057491;28;20180;-90
2021/08/01 05:46:34;;;;;;;7.83;4.97;;;17.00;99.90;;;;;;5039613;28;20191;-91
2021/08/01 05:49:00;;;;;;;10.07;7.00;;;17.00;99.90;;;;;;5039304;28;20696;-92
2021/08/01 05:51:25;;;;;;;6.73;5.67;;;17.10;99.90;;;;;;5039815;28;20172;-93
2021/08/01 05:53:51;;;;;;;8.23;5.53;;;17.20;99.90;;;;;;5040207;28;20261;-92
2021/08/01 05:56:17;;;;;;;11.73;5.60;;;17.30;99.90;;;;;;5039809;28;20185;-93
2021/08/01 05:58:42;;;;;;;7.07;4.67;;;17.30;99.90;;;;;;5039642;28;20191;-90
2021/08/01 06:01:13;;;;;;;8.53;5.17;;;17.30;99.90;;;;;;5039517;28;20240;-90
2021/08/01 06:03:42;;;;;;;6.60;5.13;;;17.30;99.90;;;;;;5039061;28;20180;-90
2021/08/01 06:06:18;;;;;;;7.57;4.93;;;17.20;99.90;;;;;;5040204;28;20428;-91
2021/08/01 06:08:48;;;;;;;9.03;4.67;;;17.10;99.90;;;;;;5057482;28;20405;-90
2021/08/01 06:11:16;;;;;;;7.77;5.57;;;17.10;99.90;;;;;;5039313;28;20987;-89
2021/08/01 06:13:42;;;;;;;8.00;5.20;;;17.20;99.90;;;;;;5039278;28;20935;-91
2021/08/01 06:16:09;;;;;;;8.73;4.87;;;17.30;99.90;;;;;;5038836;28;20532;-90
2021/08/01 06:18:36;;;;;;;6.93;4.93;;;17.20;99.90;;;;;;5038768;28;20422;-90
2021/08/01 06:21:02;;;;;;;5.57;5.07;;;17.20;99.90;;;;;;5039001;28;20478;-90
2021/08/01 06:23:28;;;;;;;6.30;4.93;;;17.10;99.90;;;;;;5038968;28;20421;-91
2021/08/01 06:25:53;;;;;;;10.23;5.43;;;17.30;99.90;;;;;;5039086;28;20432;-91
2021/08/01 06:28:19;;;;;;;6.17;5.50;;;17.50;99.90;;;;;;5038538;28;20177;-89
2021/08/01 06:30:45;;;;;;;6.37;5.47;;;17.50;99.90;;;;;;5039427;28;20168;-89
2021/08/01 06:33:10;;;;;;;10.13;6.30;;;17.50;99.90;;;;;;5039073;28;20185;-92
2021/08/01 06:35:37;;;;;;;6.53;5.93;;;17.70;99.90;;;;;;5038553;28;20174;-89
2021/08/01 06:38:03;;;;;;;7.10;5.30;;;17.70;99.90;;;;;;5038606;28;20197;-92
2021/08/01 06:40:28;;;;;;;7.43;5.43;;;17.60;99.90;;;;;;5047918;28;20462;-92
2021/08/01 06:42:54;;;;;;;8.33;5.87;;;17.80;99.90;;;;;;5041916;28;20184;-89
2021/08/01 06:45:19;;;;;;;6.50;5.90;;;17.80;99.90;;;;;;5038966;28;20208;-91
2021/08/01 06:47:45;;;;;;;7.53;5.40;;;17.80;99.90;;;;;;5038473;28;20633;-92
2021/08/01 06:50:11;;;;;;;7.67;5.40;;;17.80;99.90;;;;;;5037963;28;20177;-91
2021/08/01 06:52:36;;;;;;;13.47;6.20;;;17.80;99.90;;;;;;5038212;28;20211;-88
2021/08/01 06:55:03;;;;;;;12.27;7.10;;;18.00;99.90;;;;;;5037634;28;20177;-89
2021/08/01 06:57:28;;;;;;;7.97;5.67;;;18.10;99.90;;;;;;5055657;28;20211;-90
2021/08/01 06:59:54;;;;;;;8.07;6.57;;;18.30;99.90;;;;;;5037796;28;20863;-92
2021/08/01 07:02:19;;;;;;;6.13;5.53;;;18.40;99.90;;;;;;5037995;28;20179;-92
2021/08/01 07:04:45;;;;;;;8.33;5.90;;;18.20;99.90;;;;;;5037629;28;20233;-90
2021/08/01 07:07:11;;;;;;;6.50;5.80;;;18.10;99.90;;;;;;5038058;28;20180;-90
2021/08/01 07:09:40;;;;;;;7.30;6.03;;;18.10;99.90;;;;;;5039073;28;20185;-91
2021/08/01 07:12:07;;;;;;;8.63;6.00;;;18.10;99.90;;;;;;5038611;28;20193;-92
2021/08/01 07:14:32;;;;;;;8.50;6.50;;;18.10;99.90;;;;;;5038018;28;20457;-92
2021/08/01 07:17:00;;;;;;;9.27;6.80;;;18.10;99.90;;;;;;5038434;28;20457;-91
2021/08/01 07:19:26;;;;;;;8.27;5.70;;;17.90;99.90;;;;;;5037880;28;20205;-92
2021/08/01 07:21:51;;;;;;;8.50;5.57;;;17.90;99.90;;;;;;5038144;28;20499;-91
2021/08/01 07:24:17;;;;;;;8.37;5.90;;;17.80;99.90;;;;;;5038508;28;20275;-90
2021/08/01 07:26:42;;;;;;;8.53;5.67;;;17.70;99.90;;;;;;5038044;28;20174;-93
2021/08/01 07:29:08;;;;;;;7.67;6.00;;;17.70;99.90;;;;;;5038175;28;20637;-91
2021/08/01 07:31:34;;;;;;;8.90;5.90;;;17.70;99.90;;;;;;5038185;28;20197;-93
2021/08/01 07:34:00;;;;;;;10.23;6.60;;;17.70;99.90;;;;;;5038059;28;20181;-92
2021/08/01 07:36:26;;;;;;;8.63;6.43;;;17.60;99.90;;;;;;5038289;28;20208;-92
2021/08/01 07:38:52;;;;;;;11.13;7.00;;;17.60;99.90;;;;;;5037134;28;20410;-91
2021/08/01 07:41:18;;;;;;;7.60;6.37;;;17.60;99.90;;;;;;5037792;28;20461;-91
2021/08/01 07:43:43;;;;;;;7.70;6.97;;;17.60;99.90;;;;;;5038300;28;20172;-92
2021/08/01 07:46:09;;;;;;;8.23;7.20;;;17.70;99.90;;;;;;5037862;28;20270;-92
2021/08/01 07:48:34;;;;;;;6.20;5.60;;;17.70;99.90;;;;;;5038299;28;20177;-90
2021/08/01 07:51:00;;;;;;;9.43;6.80;;;17.80;99.90;;;;;;5038066;28;20239;-93
2021/08/01 07:53:26;;;;;;;12.37;7.53;;;18.00;99.90;;;;;;5038111;28;20179;-93
2021/08/01 07:55:52;;;;;;;13.17;7.57;;;18.20;99.90;;;;;;5038616;28;20490;-93
2021/08/01 07:58:18;;;;;;;8.20;6.93;;;18.50;99.90;;;;;;5040790;28;20576;-92
2021/08/01 08:00:44;;;;;;;7.93;7.03;;;18.90;99.90;;;;;;5038841;28;20474;-93
2021/08/01 08:03:12;;;;;;;8.83;6.97;;;19.30;99.90;;;;;;5038833;28;20171;-91
2021/08/01 08:05:38;;;;;;;7.37;5.57;;;20.70;99.90;;;;;;5026797;28;20220;-89
2021/08/01 08:08:04;;;;;;;8.30;5.50;;;21.20;99.90;;;;;;5017002;28;20410;-90
2021/08/01 08:10:29;;;;;;;9.43;5.60;;;23.20;99.90;;;;;;5012953;28;20178;-91
2021/08/01 08:12:55;;;;;;;6.57;5.90;;;23.10;99.90;;;;;;5025060;28;20184;-90
2021/08/01 08:15:21;;;;;;;7.00;4.40;;;21.60;99.90;;;;;;5026132;28;20222;-90
2021/08/01 08:17:46;;;;;;;7.70;5.63;;;21.50;99.90;;;;;;5036500;28;20172;-90
2021/08/01 08:20:13;;;;;;;6.40;5.00;;;22.00;99.90;;;;;;5036636;28;20204;-91
2021/08/01 08:22:38;;;;;;;4.83;4.40;;;21.40;99.90;;;;;;5036394;28;20208;-90
2021/08/01 08:25:05;;;;;;;5.77;4.93;;;21.00;99.90;;;;;;5036759;28;20465;-93
2021/08/01 08:27:31;;;;;;;10.37;5.27;;;20.60;99.90;;;;;;5028386;28;20179;-90
2021/08/01 08:29:57;;;;;;;7.20;4.67;;;20.80;99.90;;;;;;5034226;28;20531;-91
2021/08/01 08:32:23;;;;;;;6.37;4.60;;;20.50;99.90;;;;;;5036161;28;20175;-91
2021/08/01 08:34:48;;;;;;;6.00;5.47;;;20.30;99.90;;;;;;5035217;28;20207;-90
2021/08/01 08:37:14;;;;;;;11.50;6.17;;;20.40;99.90;;;;;;5036254;28;20174;-90
2021/08/01 08:39:40;;;;;;;6.90;5.33;;;20.30;99.90;;;;;;5035881;28;20206;-90
2021/08/01 08:42:06;;;;;;;8.63;6.70;;;20.20;99.90;;;;;;5040409;28;20203;-94
2021/08/01 08:44:35;;;;;;;9.10;6.83;;;20.00;99.90;;;;;;5033314;28;20473;-95
2021/08/01 08:47:03;;;;;;;8.00;6.37;;;20.20;99.90;;;;;;5043212;28;20511;-94
2021/08/01 08:49:31;;;;;;;9.30;6.17;;;20.40;99.90;;;;;;5058635;28;20459;-91
2021/08/01 08:51:58;;;;;;;6.20;5.63;;;20.30;99.90;;;;;;5039222;28;20513;-93
2021/08/01 08:56:56;;;;;;;5.53;4.47;;;20.30;99.90;;;;;;5026595;28;20473;-91
2021/08/01 08:59:23;;;;;;;6.40;5.47;;;20.10;99.90;;;;;;5017334;28;20435;-93
2021/08/01 09:01:48;;;;;;;8.27;4.50;;;20.20;99.90;;;;;;5018415;28;20465;-91
2021/08/01 09:04:15;;;;;;;5.53;5.03;;;20.70;99.90;;;;;;5015413;28;20905;-89
2021/08/01 09:06:41;;;;;;;5.40;4.50;;;21.30;99.90;;;;;;5016111;28;20172;-91
2021/08/01 09:09:09;;;;;;;4.97;3.57;;;21.20;99.90;;;;;;5015390;28;20414;-89
2021/08/01 09:11:35;;;;;;;6.20;3.97;;;21.00;99.90;;;;;;5024796;28;20435;-91
2021/08/01 09:14:00;;;;;;;4.57;4.07;;;20.70;99.90;;;;;;5015244;28;20406;-88
2021/08/01 09:16:43;;;;;;;5.17;4.43;;;20.30;99.90;;;;;;5031397;28;20254;-88
2021/08/01 09:19:29;;;;;;;6.93;3.63;;;20.00;99.90;;;;;;5014514;28;20179;-89
2021/08/01 09:22:09;;;;;;;7.20;4.07;;;19.90;99.90;;;;;;5030510;28;20461;-89
2021/08/01 09:24:35;;;;;;;8.13;4.73;;;19.80;99.90;;;;;;5014462;28;20464;-87
2021/08/01 09:27:02;;;;;;;6.70;5.27;;;19.80;99.90;;;;;;5015006;28;21197;-88
2021/08/01 09:29:49;;;;;;;5.70;4.20;;;19.80;99.90;;;;;;5013703;28;20183;-88
2021/08/01 09:32:14;;;;;;;9.87;4.50;;;20.20;99.90;;;;;;5011420;28;20778;-88
2021/08/01 09:34:48;;;;;;;4.10;3.47;;;21.50;99.90;;;;;;4995428;28;20418;-88
2021/08/01 09:37:27;;;;;;;6.20;3.73;;;21.50;99.90;;;;;;5012564;28;20708;-88
2021/08/01 09:40:08;;;;;;;3.80;3.10;;;21.30;99.90;;;;;;5013244;28;20410;-88
2021/08/01 09:42:44;;;;;;;3.13;2.83;;;21.30;99.90;;;;;;4998626;28;20435;-88
2021/08/01 09:45:13;;;;;;;6.20;3.53;;;21.00;99.90;;;;;;4996302;28;20415;-88
2021/08/01 09:47:38;;;;;;;4.93;4.03;;;20.90;99.90;;;;;;4995533;28;20435;-89
2021/08/01 09:50:06;;;;;;;5.73;3.13;;;21.70;99.90;;;;;;5013085;28;20413;-89
2021/08/01 09:52:32;;;;;;;5.23;3.90;;;21.70;99.90;;;;;;4996365;28;20178;-89
2021/08/01 09:54:57;;;;;;;7.03;3.33;;;21.60;99.90;;;;;;5000367;28;20854;-89
2021/08/01 09:57:23;;;;;;;4.53;3.07;;;21.70;99.90;;;;;;5036302;28;20177;-89
2021/08/01 10:00:03;;;;;;;3.30;2.90;;;22.90;99.90;;;;;;5034097;28;20199;-88
2021/08/01 10:02:39;;;;;;;3.17;2.90;;;24.80;99.90;;;;;;5037911;28;20189;-88
2021/08/01 10:05:22;;;;;;;3.73;3.10;;;25.40;99.90;;;;;;5036799;28;20422;-89
2021/08/01 10:07:49;;;;;;;3.83;2.90;;;24.10;99.90;;;;;;5057240;28;20435;-89
2021/08/01 10:10:26;;;;;;;2.30;2.10;;;24.90;99.90;;;;;;5036866;28;20830;-88
2021/08/01 10:12:55;;;;;;;4.20;2.93;;;23.90;99.90;;;;;;5053421;28;20833;-86
2021/08/01 10:15:21;;;;;;;4.60;3.33;;;22.50;99.90;;;;;;5052874;28;20789;-91
2021/08/01 10:17:47;;;;;;;5.40;3.07;;;22.00;99.90;;;;;;5055777;28;20412;-90
2021/08/01 10:20:12;;;;;;;3.57;2.77;;;21.80;99.90;;;;;;5036724;28;20202;-87
2021/08/01 10:22:40;;;;;;;3.83;3.43;;;21.80;99.90;;;;;;5054889;28;20426;-91
2021/08/01 10:25:11;;;;;;;2.90;2.70;;;21.80;99.90;;;;;;5037995;28;20177;-91
2021/08/01 10:27:44;;;;;;;4.33;3.00;;;22.10;99.90;;;;;;5054274;28;20502;-84
2021/08/01 10:30:12;;;;;;;4.00;2.70;;;25.70;99.90;;;;;;5033442;28;20436;-84
2021/08/01 10:32:42;;;;;;;2.60;2.40;;;24.50;99.90;;;;;;5052299;28;20822;-85
2021/08/01 10:35:14;;;;;;;3.77;2.87;;;23.20;99.90;;;;;;5053135;28;20816;-87
2021/08/01 10:37:42;;;;;;;5.50;2.97;;;22.20;99.90;;;;;;5036426;28;20507;-84
2021/08/01 10:40:10;;;;;;;4.10;3.13;;;22.10;99.90;;;;;;5036550;28;20502;-85
2021/08/01 10:42:40;;;;;;;3.57;3.13;;;22.50;99.90;;;;;;5036929;28;20505;-91
2021/08/01 10:45:06;;;;;;;3.43;3.13;;;23.90;99.90;;;;;;5017472;28;20424;-90
2021/08/01 10:47:34;;;;;;;2.60;1.80;;;26.30;99.90;;;;;;5017483;28;20516;-89
2021/08/01 10:50:01;;;;;;;4.40;2.30;;;26.20;99.90;;;;;;5037690;28;20431;-93
2021/08/01 10:52:33;;;;;;;2.03;1.80;;;26.10;99.70;;;;;;5037413;28;20420;-91
2021/08/01 10:55:03;;;;;;;2.80;2.30;;;25.00;99.90;;;;;;5062077;28;20468;-89
2021/08/01 10:57:30;;;;;;;6.30;2.50;;;24.00;99.90;;;;;;5037283;28;20431;-91
2021/08/01 10:59:57;;;;;;;3.60;2.67;;;24.40;99.90;;;;;;5036858;28;20423;-89
2021/08/01 11:02:24;;;;;;;2.20;1.80;;;26.00;99.90;;;;;;5036930;28;20424;-90
2021/08/01 11:04:51;;;;;;;3.20;2.37;;;26.90;99.90;;;;;;5036819;28;20412;-88
2021/08/01 11:07:26;;;;;;;2.47;2.07;;;27.50;97.40;;;;;;5025569;28;20456;-90
2021/08/01 11:10:04;;;;;;;2.80;2.00;;;26.90;99.40;;;;;;5035383;28;20412;-89
2021/08/01 11:12:43;;;;;;;1.93;1.83;;;26.80;99.20;;;;;;5035566;28;20416;-89
2021/08/01 11:15:30;;;;;;;3.47;2.20;;;26.40;97.30;;;;;;5052781;28;20900;-93
2021/08/01 11:18:05;;;;;;;2.43;1.97;;;25.10;99.90;;;;;;5029188;28;20436;-91
2021/08/01 11:20:32;;;;;;;3.20;2.43;;;24.80;99.90;;;;;;5027736;28;20495;-91
2021/08/01 11:23:00;;;;;;;2.00;1.63;;;25.10;99.90;;;;;;5037172;28;20807;-93
2021/08/01 11:25:34;;;;;;;4.30;3.40;;;24.80;99.90;;;;;;5037904;28;20419;-93
2021/08/01 11:28:12;;;;;;;4.07;2.57;;;24.50;99.90;;;;;;5037572;28;20423;-92
2021/08/01 11:33:36;;;;;;;2.60;2.40;;;23.20;99.90;;;;;;5053319;28;20447;-93
2021/08/01 11:36:11;;;;;;;3.00;2.70;;;22.90;99.90;;;;;;5055201;28;20450;-91
2021/08/01 11:38:59;;;;;;;3.60;2.80;;;23.00;99.90;;;;;;5036363;28;20424;-92
2021/08/01 11:41:39;;;;;;;3.43;2.40;;;23.50;99.90;;;;;;5037429;28;20479;-91
2021/08/01 11:44:08;;;;;;;2.20;2.00;;;24.20;99.90;;;;;;5036894;28;20762;-91
2021/08/01 11:46:54;;;;;;;2.17;1.43;;;24.80;99.90;;;;;;5036875;28;20431;-89
2021/08/01 11:49:26;;;;;;;4.83;1.53;;;24.60;99.90;;;;;;5035731;28;20420;-89
2021/08/01 11:51:54;;;;;;;2.47;2.17;;;24.20;99.90;;;;;;5036259;28;20412;-89
2021/08/01 11:54:26;;;;;;;3.13;1.60;;;23.20;99.90;;;;;;5054102;28;20400;-89
2021/08/01 11:56:55;;;;;;;14.33;6.50;;;22.50;99.90;;;;;;5040406;28;20471;-85
2021/08/01 11:59:22;;;;;;;6.20;3.70;;;20.70;99.90;;;;;;5037218;28;20421;-90
2021/08/01 12:01:49;;;;;;;5.63;3.97;;;19.40;99.90;;;;;;5054646;28;20462;-92
2021/08/01 12:04:14;;;;;;;5.57;3.00;;;18.80;99.90;;;;;;5035175;28;20443;-90
2021/08/01 12:06:42;;;;;;;4.33;2.47;;;18.40;99.90;;;;;;5037022;28;20433;-90
2021/08/01 12:09:17;;;;;;;5.90;3.17;;;18.30;99.90;;;;;;5037224;28;20222;-87
2021/08/01 12:11:54;;;;;;;3.30;2.60;;;18.50;99.90;;;;;;5037337;28;21008;-92
2021/08/01 12:14:40;;;;;;;4.53;2.80;;;18.60;99.90;;;;;;5036975;28;20416;-92
2021/08/01 12:17:12;;;;;;;2.90;2.50;;;18.80;99.90;;;;;;5036685;28;20482;-92
2021/08/01 12:19:45;;;;;;;4.57;2.40;;;18.60;99.90;;;;;;5034861;28;20928;-91
2021/08/01 12:22:13;;;;;;;5.93;2.73;;;18.30;99.90;;;;;;5035987;28;20470;-91
2021/08/01 12:24:46;;;;;;;6.07;2.70;;;18.10;99.90;;;;;;5033444;28;20419;-90
2021/08/01 12:27:22;;;;;;;10.17;3.17;;;17.90;99.90;;;;;;5033862;28;20419;-90
2021/08/01 12:29:53;;;;;;;4.00;2.90;;;17.90;99.90;;;;;;5034072;28;20497;-89
2021/08/01 12:32:45;;;;;;;5.20;2.60;;;17.60;99.90;;;;;;5031050;28;20449;-89
2021/08/01 12:35:11;;;;;;;4.10;2.13;;;17.60;99.90;;;;;;5036252;28;20423;-91
2021/08/01 12:37:48;;;;;;;3.63;1.77;;;17.60;99.90;;;;;;5025636;28;20786;-92
2021/08/01 12:40:29;;;;;;;3.30;2.00;;;17.60;99.90;;;;;;5030241;28;20221;-89
2021/08/01 12:43:02;;;;;;;3.93;1.77;;;17.70;99.90;;;;;;5038655;28;20428;-91
2021/08/01 12:45:31;;;;;;;3.30;2.20;;;17.70;99.90;;;;;;5032805;28;20430;-91
2021/08/01 12:47:57;;;;;;;3.30;3.00;;;17.90;99.90;;;;;;5032187;28;20922;-92
2021/08/01 12:50:23;;;;;;;3.57;1.70;;;18.30;99.90;;;;;;5030918;28;20421;-92
2021/08/01 12:52:51;;;;;;;3.00;1.77;;;18.70;99.90;;;;;;5036081;28;20477;-92
2021/08/01 12:55:26;;;;;;;2.73;1.73;;;19.30;99.90;;;;;;5042600;28;20224;-93
2021/08/01 12:58:17;;;;;;;3.30;2.77;;;19.30;99.90;;;;;;5033539;28;20457;-93